Time;durP1;ratioP1;P1;durP2;ratioP2;P2;SDS_P1;SDS_P2;PMS_P1;PMS_P2;Temp;Humidity;BMP_temperature;BMP_pressure;BME280_temperature;BME280_humidity;BME280_pressure;Samples;Min_cycle;Max_cycle;Signal;HPM_P1;HPM_P2
2023/03/07 00:00:58;;;;;;;11.20;9.10;;;;;;;;;;5042530;28;20188;-70
2023/03/07 00:03:23;;;;;;;12.20;10.03;;;;;;;;;;5044797;28;20206;-71
2023/03/07 00:05:48;;;;;;;13.10;11.00;;;;;;;;;;5040247;28;20180;-71
2023/03/07 00:08:13;;;;;;;13.20;10.80;;;;;;;;;;5040875;28;20646;-70
2023/03/07 00:10:39;;;;;;;14.30;10.63;;;;;;;;;;5044689;28;20179;-70
2023/03/07 00:13:04;;;;;;;13.63;11.30;;;;;;;;;;5044539;28;20199;-70
2023/03/07 00:15:30;;;;;;;12.90;9.53;;;;;;;;;;5049303;28;20666;-71
2023/03/07 00:17:55;;;;;;;13.90;10.63;;;;;;;;;;5047914;28;20241;-70
2023/03/07 00:20:21;;;;;;;11.70;9.13;;;;;;;;;;5044271;28;20183;-70
2023/03/07 00:22:46;;;;;;;12.33;9.70;;;;;;;;;;5045318;28;20219;-70
2023/03/07 00:25:12;;;;;;;15.03;11.00;;;;;;;;;;5045939;28;20180;-70
2023/03/07 00:27:37;;;;;;;13.70;10.40;;;;;;;;;;5046607;28;20226;-71
2023/03/07 00:30:03;;;;;;;13.43;10.30;;;;;;;;;;5045762;28;20184;-70
2023/03/07 00:32:28;;;;;;;14.37;9.97;;;;;;;;;;5049028;28;20582;-70
2023/03/07 00:34:54;;;;;;;13.20;10.37;;;;;;;;;;5047046;28;20421;-71
2023/03/07 00:37:20;;;;;;;11.20;9.27;;;;;;;;;;5047966;28;20168;-71
2023/03/07 00:39:45;;;;;;;15.10;8.50;;;;;;;;;;5047315;28;20411;-70
2023/03/07 00:42:10;;;;;;;11.53;9.33;;;;;;;;;;5048313;28;20818;-70
2023/03/07 00:44:35;;;;;;;11.07;9.10;;;;;;;;;;5046337;28;20176;-70
2023/03/07 00:47:01;;;;;;;11.10;9.33;;;;;;;;;;5043761;28;20634;-70
2023/03/07 00:49:27;;;;;;;11.63;9.70;;;;;;;;;;5042877;28;21020;-70
2023/03/07 00:51:52;;;;;;;9.87;7.53;;;;;;;;;;5042573;28;20206;-70
2023/03/07 00:54:17;;;;;;;12.33;8.10;;;;;;;;;;5043328;28;20188;-70
2023/03/07 00:56:43;;;;;;;11.33;8.37;;;;;;;;;;5043010;28;20597;-70
2023/03/07 00:59:08;;;;;;;15.30;8.40;;;;;;;;;;5042677;28;20180;-70
2023/03/07 01:01:34;;;;;;;11.03;8.03;;;;;;;;;;5040780;28;20573;-70
2023/03/07 01:03:59;;;;;;;12.53;7.27;;;;;;;;;;5042348;28;20895;-70
2023/03/07 01:06:26;;;;;;;11.50;7.13;;;;;;;;;;5045044;28;20594;-70
2023/03/07 01:08:52;;;;;;;13.50;6.90;;;;;;;;;;5043009;28;20184;-70
2023/03/07 01:11:17;;;;;;;12.57;6.27;;;;;;;;;;5041155;28;20446;-71
2023/03/07 01:13:45;;;;;;;9.60;6.20;;;;;;;;;;5044272;28;20290;-70
2023/03/07 01:16:21;;;;;;;11.63;6.53;;;;;;;;;;5043933;28;20233;-70
2023/03/07 01:18:51;;;;;;;13.27;5.73;;;;;;;;;;5042779;28;21004;-70
2023/03/07 01:21:17;;;;;;;12.50;6.33;;;;;;;;;;5042671;28;20925;-70
2023/03/07 01:23:43;;;;;;;11.10;5.20;;;;;;;;;;5044885;28;20536;-70
2023/03/07 01:26:27;;;;;;;10.97;5.40;;;;;;;;;;5045222;28;20438;-71
2023/03/07 01:28:54;;;;;;;10.67;5.47;;;;;;;;;;5040545;28;20653;-71
2023/03/07 01:31:20;;;;;;;7.20;4.43;;;;;;;;;;5043537;28;20487;-70
2023/03/07 01:33:46;;;;;;;9.97;4.33;;;;;;;;;;5041890;28;20833;-70
2023/03/07 01:36:17;;;;;;;12.03;4.53;;;;;;;;;;5047221;28;20504;-70
2023/03/07 01:38:42;;;;;;;13.30;5.20;;;;;;;;;;5046505;28;20509;-70
2023/03/07 01:41:08;;;;;;;10.77;4.03;;;;;;;;;;5048214;28;20999;-71
2023/03/07 01:43:33;;;;;;;8.83;4.27;;;;;;;;;;5045448;28;20207;-71
2023/03/07 01:46:13;;;;;;;16.43;3.63;;;;;;;;;;5046590;28;20453;-70
2023/03/07 01:48:39;;;;;;;11.90;3.60;;;;;;;;;;5047630;28;20182;-70
2023/03/07 01:51:04;;;;;;;9.07;3.43;;;;;;;;;;5042852;28;20430;-70
2023/03/07 01:53:29;;;;;;;8.77;3.03;;;;;;;;;;5045144;28;20689;-71
2023/03/07 01:55:56;;;;;;;13.07;2.70;;;;;;;;;;5042164;28;20208;-70
2023/03/07 01:58:21;;;;;;;9.50;3.13;;;;;;;;;;5043263;28;20208;-71
2023/03/07 02:00:47;;;;;;;7.77;2.40;;;;;;;;;;5042775;28;20465;-70
2023/03/07 02:03:28;;;;;;;8.17;2.27;;;;;;;;;;5042572;28;20247;-70
2023/03/07 02:05:58;;;;;;;5.70;1.90;;;;;;;;;;5044026;28;20211;-70
2023/03/07 02:08:25;;;;;;;13.90;2.30;;;;;;;;;;5042232;28;20475;-70
2023/03/07 02:10:50;;;;;;;9.80;2.40;;;;;;;;;;5042870;28;20444;-70
2023/03/07 02:13:16;;;;;;;11.60;3.90;;;;;;;;;;5042633;28;20450;-70
2023/03/07 02:15:41;;;;;;;11.40;2.10;;;;;;;;;;5041835;28;20214;-70
2023/03/07 02:18:07;;;;;;;11.13;2.03;;;;;;;;;;5037134;28;20211;-70
2023/03/07 02:20:35;;;;;;;10.43;1.73;;;;;;;;;;5042351;28;20180;-70
2023/03/07 02:23:01;;;;;;;9.23;1.80;;;;;;;;;;5039058;28;20451;-71
2023/03/07 02:25:39;;;;;;;10.10;1.70;;;;;;;;;;5042111;28;20568;-70
2023/03/07 02:28:07;;;;;;;10.37;2.00;;;;;;;;;;5044245;28;20175;-71
2023/03/07 02:30:32;;;;;;;8.57;1.73;;;;;;;;;;5043889;28;20438;-70
2023/03/07 02:33:00;;;;;;;7.23;1.53;;;;;;;;;;5046721;28;20515;-70
2023/03/07 02:35:25;;;;;;;11.80;2.00;;;;;;;;;;5042366;28;20196;-71
2023/03/07 02:37:55;;;;;;;18.17;2.00;;;;;;;;;;5045614;28;20445;-71
2023/03/07 02:40:22;;;;;;;8.40;1.70;;;;;;;;;;5047965;28;20192;-70
2023/03/07 02:42:47;;;;;;;14.60;2.77;;;;;;;;;;5047362;28;20449;-70
2023/03/07 02:45:14;;;;;;;7.10;2.10;;;;;;;;;;5042053;28;20438;-71
2023/03/07 02:47:41;;;;;;;7.93;1.60;;;;;;;;;;5047204;28;20187;-70
2023/03/07 02:50:06;;;;;;;9.77;1.80;;;;;;;;;;5046285;28;20464;-70
2023/03/07 02:52:32;;;;;;;10.13;1.63;;;;;;;;;;5044440;28;20952;-71
2023/03/07 02:54:57;;;;;;;6.57;1.97;;;;;;;;;;5044366;28;20175;-71
2023/03/07 02:57:23;;;;;;;9.87;1.97;;;;;;;;;;5045468;28;20686;-70
2023/03/07 02:59:48;;;;;;;7.90;1.97;;;;;;;;;;5043189;28;20233;-71
2023/03/07 03:02:13;;;;;;;6.03;2.13;;;;;;;;;;5042712;28;20238;-70
2023/03/07 03:04:38;;;;;;;4.97;1.30;;;;;;;;;;5045656;28;20176;-70
2023/03/07 03:07:04;;;;;;;12.00;1.40;;;;;;;;;;5043129;28;20215;-70
2023/03/07 03:09:30;;;;;;;8.90;1.50;;;;;;;;;;5045363;28;20199;-70
2023/03/07 03:11:55;;;;;;;11.47;1.87;;;;;;;;;;5040683;28;20206;-71
2023/03/07 03:14:20;;;;;;;8.33;1.60;;;;;;;;;;5040973;28;20529;-70
2023/03/07 03:16:46;;;;;;;5.87;1.50;;;;;;;;;;5045168;28;20704;-70
2023/03/07 03:19:14;;;;;;;7.27;1.63;;;;;;;;;;5040929;28;20369;-70
2023/03/07 03:21:39;;;;;;;7.83;1.60;;;;;;;;;;5059694;28;20621;-70
2023/03/07 03:24:05;;;;;;;5.73;1.60;;;;;;;;;;5045930;28;20434;-70
2023/03/07 03:26:30;;;;;;;7.30;1.27;;;;;;;;;;5045270;28;20211;-70
2023/03/07 03:28:56;;;;;;;14.00;1.83;;;;;;;;;;5043888;28;20580;-70
2023/03/07 03:31:21;;;;;;;4.73;1.33;;;;;;;;;;5042592;28;20656;-70
2023/03/07 03:33:48;;;;;;;7.63;1.60;;;;;;;;;;5041341;28;20199;-70
2023/03/07 03:36:14;;;;;;;9.23;1.67;;;;;;;;;;5041567;28;20211;-70
2023/03/07 03:38:40;;;;;;;10.23;2.27;;;;;;;;;;5046026;28;20438;-70
2023/03/07 03:41:06;;;;;;;5.17;1.47;;;;;;;;;;5049240;28;20422;-70
2023/03/07 03:43:32;;;;;;;11.90;1.90;;;;;;;;;;5048560;28;20196;-70
2023/03/07 03:45:57;;;;;;;6.90;1.40;;;;;;;;;;5049375;28;20970;-70
2023/03/07 03:48:23;;;;;;;12.30;1.80;;;;;;;;;;5049543;28;20417;-70
2023/03/07 03:50:48;;;;;;;9.23;1.70;;;;;;;;;;5049093;28;20194;-70
2023/03/07 03:53:13;;;;;;;9.30;1.50;;;;;;;;;;5049916;28;20199;-70
2023/03/07 03:55:38;;;;;;;10.87;3.37;;;;;;;;;;5049401;28;20195;-70
2023/03/07 03:58:04;;;;;;;7.10;1.70;;;;;;;;;;5048637;28;20180;-70
2023/03/07 04:00:29;;;;;;;8.03;1.40;;;;;;;;;;5043900;28;20301;-70
2023/03/07 04:02:55;;;;;;;8.60;1.80;;;;;;;;;;5044485;28;20207;-70
2023/03/07 04:05:20;;;;;;;12.33;1.60;;;;;;;;;;5044583;28;20676;-70
2023/03/07 04:07:46;;;;;;;7.47;1.80;;;;;;;;;;5041127;28;20211;-70
2023/03/07 04:10:12;;;;;;;14.10;1.30;;;;;;;;;;5042345;28;20234;-70
2023/03/07 04:12:38;;;;;;;11.23;1.47;;;;;;;;;;5042771;28;21050;-70
2023/03/07 04:15:04;;;;;;;6.77;1.43;;;;;;;;;;5041497;28;20673;-70
2023/03/07 04:17:29;;;;;;;6.50;1.70;;;;;;;;;;5042348;28;20171;-70
2023/03/07 04:19:54;;;;;;;6.10;1.40;;;;;;;;;;5044928;28;20427;-71
2023/03/07 04:22:20;;;;;;;8.77;1.57;;;;;;;;;;5042626;28;20192;-70
2023/03/07 04:24:45;;;;;;;9.30;1.47;;;;;;;;;;5045122;28;20616;-70
2023/03/07 04:27:10;;;;;;;6.00;1.07;;;;;;;;;;5043310;28;20271;-71
2023/03/07 04:29:36;;;;;;;12.20;1.57;;;;;;;;;;5042422;28;20190;-70
2023/03/07 04:32:01;;;;;;;14.00;1.83;;;;;;;;;;5042234;28;20650;-70
2023/03/07 04:34:26;;;;;;;9.40;1.93;;;;;;;;;;5038454;28;20180;-70
2023/03/07 04:36:51;;;;;;;4.27;1.57;;;;;;;;;;5041947;28;20223;-70
2023/03/07 04:39:17;;;;;;;5.87;1.17;;;;;;;;;;5042652;28;20191;-70
2023/03/07 04:41:42;;;;;;;7.50;1.53;;;;;;;;;;5046145;28;20263;-70
2023/03/07 04:44:07;;;;;;;9.30;1.53;;;;;;;;;;5044818;28;20230;-70
2023/03/07 04:46:33;;;;;;;6.80;1.83;;;;;;;;;;5045297;28;20186;-71
2023/03/07 04:48:58;;;;;;;7.53;1.70;;;;;;;;;;5043045;28;20207;-70
2023/03/07 04:51:23;;;;;;;5.63;1.37;;;;;;;;;;5044410;28;20539;-71
2023/03/07 04:53:49;;;;;;;9.43;1.60;;;;;;;;;;5040930;28;20337;-70
2023/03/07 04:56:15;;;;;;;10.30;1.80;;;;;;;;;;5043773;28;20293;-70
2023/03/07 04:58:40;;;;;;;7.70;1.93;;;;;;;;;;5041977;28;20322;-71
2023/03/07 05:01:06;;;;;;;13.50;1.80;;;;;;;;;;5046291;28;20506;-70
2023/03/07 05:03:31;;;;;;;11.20;1.30;;;;;;;;;;5043607;28;20253;-71
2023/03/07 05:06:00;;;;;;;10.27;1.80;;;;;;;;;;5043962;28;20184;-70
2023/03/07 05:08:25;;;;;;;7.23;1.77;;;;;;;;;;5035412;28;20211;-70
2023/03/07 05:10:50;;;;;;;7.33;1.50;;;;;;;;;;5046426;28;20492;-70
2023/03/07 05:13:16;;;;;;;8.33;1.60;;;;;;;;;;5048050;28;20202;-70
2023/03/07 05:15:41;;;;;;;6.73;1.83;;;;;;;;;;5045064;28;20203;-70
2023/03/07 05:18:06;;;;;;;9.87;1.93;;;;;;;;;;5039010;28;20643;-70
2023/03/07 05:20:32;;;;;;;11.77;1.70;;;;;;;;;;5042917;28;20174;-70
2023/03/07 05:22:57;;;;;;;12.10;1.63;;;;;;;;;;5038677;28;20253;-70
2023/03/07 05:25:23;;;;;;;10.37;1.90;;;;;;;;;;5044604;28;20438;-70
2023/03/07 05:27:48;;;;;;;6.50;1.60;;;;;;;;;;5041850;28;20171;-70
2023/03/07 05:30:15;;;;;;;11.87;2.20;;;;;;;;;;5044338;28;20807;-70
2023/03/07 05:32:40;;;;;;;9.67;1.47;;;;;;;;;;5040136;28;20223;-70
2023/03/07 05:35:07;;;;;;;8.83;1.63;;;;;;;;;;5047479;28;20474;-71
2023/03/07 05:37:32;;;;;;;4.53;1.67;;;;;;;;;;5041962;28;20229;-70
2023/03/07 05:39:57;;;;;;;7.77;1.80;;;;;;;;;;5047847;28;20419;-71
2023/03/07 05:42:22;;;;;;;9.23;1.53;;;;;;;;;;5046798;28;20678;-71
2023/03/07 05:44:48;;;;;;;9.17;1.43;;;;;;;;;;5049478;28;20542;-70
2023/03/07 05:47:15;;;;;;;6.13;1.50;;;;;;;;;;5044580;28;20180;-70
2023/03/07 05:49:41;;;;;;;10.40;1.80;;;;;;;;;;5047153;28;20198;-71
2023/03/07 05:52:06;;;;;;;7.10;1.67;;;;;;;;;;5047048;28;20407;-71
2023/03/07 05:54:31;;;;;;;8.87;1.77;;;;;;;;;;5048074;28;20172;-71
2023/03/07 05:56:56;;;;;;;7.37;1.50;;;;;;;;;;5047593;28;20568;-70
2023/03/07 05:59:22;;;;;;;6.87;1.20;;;;;;;;;;5047020;28;20172;-70
2023/03/07 06:01:47;;;;;;;8.47;1.50;;;;;;;;;;5045548;28;20529;-70
2023/03/07 06:04:12;;;;;;;5.80;1.20;;;;;;;;;;5041580;28;20218;-71
2023/03/07 06:06:37;;;;;;;7.43;1.80;;;;;;;;;;5041686;28;20175;-70
2023/03/07 06:09:04;;;;;;;5.63;1.13;;;;;;;;;;5045803;28;20183;-70
2023/03/07 06:11:30;;;;;;;8.07;1.23;;;;;;;;;;5046990;28;20175;-70
2023/03/07 06:13:55;;;;;;;8.63;1.50;;;;;;;;;;5039827;28;20480;-71
2023/03/07 06:16:20;;;;;;;13.50;2.33;;;;;;;;;;5046318;28;20288;-70
2023/03/07 06:18:46;;;;;;;9.17;1.80;;;;;;;;;;5042924;28;20646;-71
2023/03/07 06:21:13;;;;;;;3.70;1.13;;;;;;;;;;5037749;28;20225;-70
2023/03/07 06:23:38;;;;;;;5.43;1.40;;;;;;;;;;5042368;28;20211;-71
2023/03/07 06:26:04;;;;;;;9.73;1.97;;;;;;;;;;5048167;28;20434;-70
2023/03/07 06:28:29;;;;;;;7.87;1.70;;;;;;;;;;5048996;28;20172;-70
2023/03/07 06:30:55;;;;;;;7.40;1.50;;;;;;;;;;5047917;28;20180;-71
2023/03/07 06:33:22;;;;;;;6.63;1.50;;;;;;;;;;5047417;28;20219;-70
2023/03/07 06:35:48;;;;;;;11.17;1.77;;;;;;;;;;5048576;28;20682;-70
2023/03/07 06:38:14;;;;;;;7.70;2.33;;;;;;;;;;5046968;28;20428;-70
2023/03/07 06:40:39;;;;;;;8.90;2.93;;;;;;;;;;5043097;28;20180;-70
2023/03/07 06:43:05;;;;;;;11.40;2.10;;;;;;;;;;5048134;28;20448;-68
2023/03/07 06:45:30;;;;;;;8.40;1.87;;;;;;;;;;5049474;28;20180;-70
2023/03/07 06:47:56;;;;;;;6.90;2.10;;;;;;;;;;5046297;28;20172;-70
2023/03/07 06:50:21;;;;;;;5.97;1.80;;;;;;;;;;5044189;28;20603;-70
2023/03/07 06:52:48;;;;;;;7.70;1.40;;;;;;;;;;5046099;28;20648;-70
2023/03/07 06:55:14;;;;;;;2.80;1.20;;;;;;;;;;5048844;28;20653;-71
2023/03/07 06:57:39;;;;;;;2.17;1.10;;;;;;;;;;5048764;28;20476;-70
2023/03/07 07:00:05;;;;;;;6.83;1.40;;;;;;;;;;5042484;28;20176;-71
2023/03/07 07:02:31;;;;;;;24.83;1.70;;;;;;;;;;5048220;28;20265;-70
2023/03/07 07:04:57;;;;;;;5.40;1.30;;;;;;;;;;5048076;28;20426;-70
2023/03/07 07:07:23;;;;;;;5.20;1.10;;;;;;;;;;5046941;28;20200;-71
2023/03/07 07:09:48;;;;;;;5.30;1.00;;;;;;;;;;5038041;28;20465;-70
2023/03/07 07:12:13;;;;;;;12.93;1.80;;;;;;;;;;5047765;28;20724;-70
2023/03/07 07:14:38;;;;;;;6.33;1.30;;;;;;;;;;5047223;28;20199;-71
2023/03/07 07:17:04;;;;;;;9.70;1.70;;;;;;;;;;5048338;28;20241;-70
2023/03/07 07:19:29;;;;;;;9.60;2.93;;;;;;;;;;5043514;28;20179;-70
2023/03/07 07:21:54;;;;;;;14.53;2.57;;;;;;;;;;5047603;28;20813;-70
2023/03/07 07:24:19;;;;;;;12.33;1.57;;;;;;;;;;5046531;28;20164;-71
2023/03/07 07:26:45;;;;;;;3.33;1.20;;;;;;;;;;5045865;28;20184;-70
2023/03/07 07:29:10;;;;;;;10.20;1.60;;;;;;;;;;5045528;28;20226;-70
2023/03/07 07:31:35;;;;;;;10.30;1.67;;;;;;;;;;5047765;28;20310;-71
2023/03/07 07:34:01;;;;;;;6.63;1.63;;;;;;;;;;5048424;28;20286;-70
2023/03/07 07:36:27;;;;;;;5.27;1.70;;;;;;;;;;5048868;28;20215;-71
2023/03/07 07:38:52;;;;;;;10.10;1.90;;;;;;;;;;5048355;28;20176;-70
2023/03/07 07:41:18;;;;;;;5.30;1.60;;;;;;;;;;5047741;28;20456;-70
2023/03/07 07:43:45;;;;;;;5.13;1.50;;;;;;;;;;5046226;28;20196;-70
2023/03/07 07:46:11;;;;;;;4.90;1.27;;;;;;;;;;5046941;28;20267;-71
2023/03/07 07:48:41;;;;;;;3.47;1.40;;;;;;;;;;5047319;28;20521;-70
2023/03/07 07:51:06;;;;;;;8.20;1.53;;;;;;;;;;5050273;28;20175;-70
2023/03/07 07:53:31;;;;;;;6.40;1.63;;;;;;;;;;5047922;28;20445;-71
2023/03/07 07:55:57;;;;;;;6.20;1.10;;;;;;;;;;5048325;28;20200;-71
2023/03/07 07:58:22;;;;;;;6.90;1.90;;;;;;;;;;5048268;28;20175;-70
2023/03/07 08:00:47;;;;;;;7.67;1.70;;;;;;;;;;5047306;28;20262;-70
2023/03/07 08:03:12;;;;;;;6.40;1.23;;;;;;;;;;5049009;28;20587;-71
2023/03/07 08:05:42;;;;;;;6.20;1.47;;;;;;;;;;5048333;28;20275;-70
2023/03/07 08:08:07;;;;;;;3.80;1.23;;;;;;;;;;5045953;28;20187;-70
2023/03/07 08:10:34;;;;;;;5.50;1.50;;;;;;;;;;5047329;28;20473;-71
2023/03/07 08:12:59;;;;;;;6.13;1.50;;;;;;;;;;5049950;28;20210;-70
2023/03/07 08:15:24;;;;;;;5.70;1.40;;;;;;;;;;5046059;28;20418;-70
2023/03/07 08:17:51;;;;;;;4.47;1.07;;;;;;;;;;5039159;28;20719;-70
2023/03/07 08:20:16;;;;;;;7.53;1.40;;;;;;;;;;5044513;28;20682;-70
2023/03/07 08:22:45;;;;;;;6.30;1.27;;;;;;;;;;5046225;28;20473;-71
2023/03/07 08:25:15;;;;;;;9.40;2.07;;;;;;;;;;5048897;28;20176;-70
2023/03/07 08:27:40;;;;;;;6.17;1.47;;;;;;;;;;5043300;28;20559;-70
2023/03/07 08:30:05;;;;;;;5.13;1.10;;;;;;;;;;5046997;28;20501;-71
2023/03/07 08:32:31;;;;;;;4.97;1.40;;;;;;;;;;5047005;28;20591;-71
2023/03/07 08:34:56;;;;;;;10.43;1.67;;;;;;;;;;5046153;28;20618;-70
2023/03/07 08:37:21;;;;;;;7.87;1.80;;;;;;;;;;5046636;28;20218;-70
2023/03/07 08:39:47;;;;;;;5.23;1.23;;;;;;;;;;5046301;28;20271;-71
2023/03/07 08:42:12;;;;;;;4.87;1.60;;;;;;;;;;5048667;28;20211;-71
2023/03/07 08:44:37;;;;;;;11.83;4.53;;;;;;;;;;5048522;28;20183;-70
2023/03/07 08:47:02;;;;;;;5.80;1.90;;;;;;;;;;5047654;28;20179;-70
2023/03/07 08:49:28;;;;;;;3.30;1.37;;;;;;;;;;5045808;28;20190;-70
2023/03/07 08:51:53;;;;;;;4.93;1.27;;;;;;;;;;5046050;28;20183;-71
2023/03/07 08:54:18;;;;;;;5.10;1.57;;;;;;;;;;5050125;28;20270;-70
2023/03/07 08:56:44;;;;;;;14.53;1.57;;;;;;;;;;5047414;28;20566;-70
2023/03/07 08:59:09;;;;;;;5.30;1.50;;;;;;;;;;5046574;28;20178;-70
2023/03/07 09:01:34;;;;;;;4.37;1.30;;;;;;;;;;5048454;28;20178;-70
2023/03/07 09:03:59;;;;;;;5.77;1.20;;;;;;;;;;5047072;28;20219;-70
2023/03/07 09:06:25;;;;;;;8.30;1.60;;;;;;;;;;5047069;28;20544;-71
2023/03/07 09:08:50;;;;;;;5.70;1.23;;;;;;;;;;5037752;28;20184;-70
2023/03/07 09:11:16;;;;;;;6.80;1.40;;;;;;;;;;5044228;28;20214;-70
2023/03/07 09:13:42;;;;;;;11.37;1.90;;;;;;;;;;5045426;28;20203;-68
2023/03/07 09:16:07;;;;;;;6.43;2.00;;;;;;;;;;5046022;28;20480;-68
2023/03/07 09:18:33;;;;;;;9.30;1.33;;;;;;;;;;5040546;28;20210;-68
2023/03/07 09:20:59;;;;;;;8.70;2.10;;;;;;;;;;5042023;28;20241;-71
2023/03/07 09:23:24;;;;;;;6.60;1.87;;;;;;;;;;5049769;28;20430;-70
2023/03/07 09:25:50;;;;;;;7.67;1.83;;;;;;;;;;5047722;28;20418;-70
2023/03/07 09:28:17;;;;;;;6.37;1.57;;;;;;;;;;5045730;28;20183;-70
2023/03/07 09:30:43;;;;;;;11.73;3.20;;;;;;;;;;5047607;28;20190;-70
2023/03/07 09:33:08;;;;;;;14.00;2.17;;;;;;;;;;5047474;28;20525;-70
2023/03/07 09:35:33;;;;;;;7.30;1.27;;;;;;;;;;5046416;28;20242;-70
2023/03/07 09:37:59;;;;;;;7.90;1.63;;;;;;;;;;5043944;28;20172;-70
2023/03/07 09:40:25;;;;;;;7.03;1.87;;;;;;;;;;5047144;28;20171;-71
2023/03/07 09:42:57;;;;;;;4.30;1.60;;;;;;;;;;5048497;28;20662;-70
2023/03/07 09:45:43;;;;;;;10.83;1.77;;;;;;;;;;5052588;28;20402;-70
2023/03/07 09:48:11;;;;;;;8.80;2.03;;;;;;;;;;5048077;28;20479;-70
2023/03/07 09:50:40;;;;;;;7.00;1.90;;;;;;;;;;5052075;28;20406;-70
2023/03/07 09:53:12;;;;;;;9.87;1.70;;;;;;;;;;5048285;28;20503;-70
2023/03/07 09:55:38;;;;;;;7.00;1.77;;;;;;;;;;5052437;28;20457;-70
2023/03/07 09:58:10;;;;;;;9.10;1.80;;;;;;;;;;5050281;28;20472;-71
2023/03/07 10:00:39;;;;;;;5.40;1.33;;;;;;;;;;5050506;28;20383;-71
2023/03/07 10:03:15;;;;;;;4.70;1.40;;;;;;;;;;5051677;28;20457;-71
2023/03/07 10:05:42;;;;;;;5.13;1.40;;;;;;;;;;5049320;28;20410;-70
2023/03/07 10:08:19;;;;;;;7.60;2.50;;;;;;;;;;5049665;28;20437;-70
2023/03/07 10:11:03;;;;;;;5.17;1.00;;;;;;;;;;5048472;28;20449;-71
2023/03/07 10:13:38;;;;;;;3.00;1.13;;;;;;;;;;5046114;28;20458;-70
2023/03/07 10:16:05;;;;;;;4.03;1.20;;;;;;;;;;5047826;28;20534;-70
2023/03/07 10:18:50;;;;;;;13.20;3.00;;;;;;;;;;5048156;28;20438;-71
2023/03/07 10:21:32;;;;;;;7.83;1.70;;;;;;;;;;5049250;28;20920;-71
2023/03/07 10:24:15;;;;;;;3.57;1.10;;;;;;;;;;5048157;28;20916;-70
2023/03/07 10:26:47;;;;;;;5.93;1.20;;;;;;;;;;5050099;28;20428;-70
2023/03/07 10:29:14;;;;;;;5.10;1.30;;;;;;;;;;5048496;28;20928;-70
2023/03/07 10:31:41;;;;;;;3.80;1.33;;;;;;;;;;5065133;28;20429;-70
2023/03/07 10:34:24;;;;;;;7.73;1.23;;;;;;;;;;5049592;28;20430;-71
2023/03/07 10:36:51;;;;;;;7.07;2.20;;;;;;;;;;5047179;28;20468;-68
2023/03/07 10:39:34;;;;;;;3.53;1.33;;;;;;;;;;5049700;28;20419;-68
2023/03/07 10:42:00;;;;;;;8.33;1.30;;;;;;;;;;5050146;28;20414;-69
2023/03/07 10:44:27;;;;;;;4.00;1.30;;;;;;;;;;5051458;28;21032;-68
2023/03/07 10:46:56;;;;;;;6.63;1.23;;;;;;;;;;5051559;28;20192;-68
2023/03/07 10:49:37;;;;;;;3.97;1.17;;;;;;;;;;5049928;28;20418;-68
2023/03/07 10:52:22;;;;;;;7.10;1.27;;;;;;;;;;5050801;28;20414;-68
2023/03/07 10:54:47;;;;;;;4.83;1.30;;;;;;;;;;5047656;28;20457;-69
2023/03/07 10:57:14;;;;;;;3.63;1.10;;;;;;;;;;5050448;28;20955;-69
2023/03/07 10:59:44;;;;;;;2.70;1.00;;;;;;;;;;5048440;28;20191;-69
2023/03/07 11:02:32;;;;;;;6.13;1.43;;;;;;;;;;5048703;28;21305;-66
2023/03/07 11:04:58;;;;;;;5.10;1.00;;;;;;;;;;5035204;28;20430;-69
2023/03/07 11:07:28;;;;;;;5.47;1.53;;;;;;;;;;5046035;28;20418;-69
2023/03/07 11:09:54;;;;;;;5.23;1.27;;;;;;;;;;5048710;28;20184;-69
2023/03/07 11:12:21;;;;;;;7.53;1.70;;;;;;;;;;5051069;28;20537;-69
2023/03/07 11:14:47;;;;;;;10.97;2.10;;;;;;;;;;5051308;28;20417;-69
2023/03/07 11:17:20;;;;;;;4.30;1.20;;;;;;;;;;5052421;28;20477;-69
2023/03/07 11:19:46;;;;;;;5.83;1.30;;;;;;;;;;5045150;28;20430;-69
2023/03/07 11:22:17;;;;;;;8.20;1.40;;;;;;;;;;5044868;28;20453;-69
2023/03/07 11:24:54;;;;;;;7.67;1.40;;;;;;;;;;5047301;28;20210;-69
2023/03/07 11:27:21;;;;;;;7.47;1.20;;;;;;;;;;5048997;28;20974;-69
2023/03/07 11:30:04;;;;;;;4.63;1.13;;;;;;;;;;5046583;28;20572;-69
2023/03/07 11:32:29;;;;;;;2.80;1.03;;;;;;;;;;5046590;28;20442;-69
2023/03/07 11:34:58;;;;;;;5.37;1.10;;;;;;;;;;5048107;28;20421;-69
2023/03/07 11:37:35;;;;;;;3.40;1.03;;;;;;;;;;5042434;28;20216;-68
2023/03/07 11:40:09;;;;;;;4.00;0.97;;;;;;;;;;5048236;28;20402;-69
2023/03/07 11:42:47;;;;;;;4.00;1.00;;;;;;;;;;5049187;28;20979;-69
2023/03/07 11:45:12;;;;;;;4.30;0.97;;;;;;;;;;5049523;28;20445;-69
2023/03/07 11:47:44;;;;;;;5.83;1.53;;;;;;;;;;5049519;28;20488;-69
2023/03/07 11:50:23;;;;;;;6.07;1.10;;;;;;;;;;5050388;28;20943;-69
2023/03/07 11:53:07;;;;;;;8.63;1.30;;;;;;;;;;5049904;28;20465;-69
2023/03/07 11:55:45;;;;;;;6.40;1.33;;;;;;;;;;5048271;28;20414;-69
2023/03/07 11:58:13;;;;;;;6.37;1.00;;;;;;;;;;5047886;28;20410;-69
2023/03/07 12:00:44;;;;;;;4.10;1.13;;;;;;;;;;5049259;28;20399;-69
2023/03/07 12:03:21;;;;;;;2.90;1.30;;;;;;;;;;5048418;28;20480;-69
2023/03/07 12:05:55;;;;;;;3.93;1.37;;;;;;;;;;5048121;28;20438;-70
2023/03/07 12:08:30;;;;;;;5.33;1.33;;;;;;;;;;5048594;28;20449;-69
2023/03/07 12:10:55;;;;;;;8.13;1.13;;;;;;;;;;5047947;28;20417;-69
2023/03/07 12:13:29;;;;;;;4.73;1.10;;;;;;;;;;5048526;28;20944;-69
2023/03/07 12:15:55;;;;;;;2.50;0.90;;;;;;;;;;5048816;28;20704;-69
2023/03/07 12:18:20;;;;;;;4.97;1.03;;;;;;;;;;5046668;28;20442;-69
2023/03/07 12:20:46;;;;;;;2.20;1.00;;;;;;;;;;5048684;28;20254;-69
2023/03/07 12:23:14;;;;;;;5.37;1.60;;;;;;;;;;5046602;28;20199;-69
2023/03/07 12:25:50;;;;;;;6.37;1.20;;;;;;;;;;5047074;28;20542;-69
2023/03/07 12:28:31;;;;;;;2.80;0.90;;;;;;;;;;5046864;28;20426;-69
2023/03/07 12:30:59;;;;;;;2.20;0.80;;;;;;;;;;5048390;28;20974;-69
2023/03/07 12:33:41;;;;;;;5.93;1.27;;;;;;;;;;5047011;28;20438;-69
2023/03/07 12:36:11;;;;;;;4.80;1.03;;;;;;;;;;5047828;28;20457;-69
2023/03/07 12:38:37;;;;;;;3.50;1.00;;;;;;;;;;5042661;28;20421;-69
2023/03/07 12:41:20;;;;;;;8.73;1.40;;;;;;;;;;5049475;28;20649;-69
2023/03/07 12:43:50;;;;;;;4.10;0.97;;;;;;;;;;5044908;28;20195;-69
2023/03/07 12:46:18;;;;;;;4.00;1.10;;;;;;;;;;5048014;28;20418;-69
2023/03/07 12:48:57;;;;;;;4.30;1.00;;;;;;;;;;5043791;28;20426;-69
2023/03/07 12:51:29;;;;;;;2.67;1.20;;;;;;;;;;5044923;28;20448;-69
2023/03/07 12:53:58;;;;;;;4.07;1.03;;;;;;;;;;5047799;28;20994;-69
2023/03/07 12:56:41;;;;;;;5.20;1.20;;;;;;;;;;5046443;28;20464;-69
2023/03/07 12:59:11;;;;;;;5.63;1.30;;;;;;;;;;5045339;28;20453;-69
2023/03/07 13:01:39;;;;;;;4.43;1.53;;;;;;;;;;5047304;28;20453;-69
2023/03/07 13:04:19;;;;;;;7.10;1.57;;;;;;;;;;5045830;28;20476;-69
2023/03/07 13:06:45;;;;;;;4.53;1.50;;;;;;;;;;5046528;28;20422;-69
2023/03/07 13:09:24;;;;;;;6.73;1.20;;;;;;;;;;5040234;28;20441;-69
2023/03/07 13:12:08;;;;;;;2.83;0.90;;;;;;;;;;5042595;28;20775;-69
2023/03/07 13:14:40;;;;;;;2.17;0.87;;;;;;;;;;5048182;28;20915;-69
2023/03/07 13:17:09;;;;;;;8.60;1.20;;;;;;;;;;5036262;28;20486;-69
2023/03/07 13:19:35;;;;;;;4.33;1.20;;;;;;;;;;5033326;28;20491;-69
2023/03/07 13:22:15;;;;;;;3.80;1.00;;;;;;;;;;5041849;28;20924;-69
2023/03/07 13:24:44;;;;;;;5.23;1.10;;;;;;;;;;5041240;28;20175;-69
2023/03/07 13:27:31;;;;;;;3.57;1.10;;;;;;;;;;5043540;28;20822;-69
2023/03/07 13:30:09;;;;;;;5.47;0.97;;;;;;;;;;5040483;28;20437;-69
2023/03/07 13:32:47;;;;;;;4.37;0.90;;;;;;;;;;5042010;28;20456;-69
2023/03/07 13:35:12;;;;;;;7.70;1.40;;;;;;;;;;5041492;28;20960;-69
2023/03/07 13:38:02;;;;;;;8.83;1.00;;;;;;;;;;5040655;28;20472;-69
2023/03/07 13:40:33;;;;;;;2.40;0.77;;;;;;;;;;5030752;28;20179;-69
2023/03/07 13:42:59;;;;;;;3.37;0.80;;;;;;;;;;5040562;28;20485;-69
2023/03/07 13:45:36;;;;;;;3.60;1.30;;;;;;;;;;5043828;28;20512;-69
2023/03/07 13:48:02;;;;;;;7.90;0.90;;;;;;;;;;5037995;28;20654;-68
2023/03/07 13:50:34;;;;;;;4.87;1.47;;;;;;;;;;5041612;28;20426;-69
2023/03/07 13:53:07;;;;;;;4.30;1.10;;;;;;;;;;5046204;28;20445;-69
2023/03/07 13:55:37;;;;;;;2.60;0.83;;;;;;;;;;5038407;28;20860;-69
2023/03/07 13:58:10;;;;;;;2.77;0.80;;;;;;;;;;5041498;28;20426;-69
2023/03/07 14:00:36;;;;;;;3.60;1.00;;;;;;;;;;5043126;28;20438;-69
2023/03/07 14:03:02;;;;;;;1.77;0.77;;;;;;;;;;5039838;28;20519;-69
2023/03/07 14:05:28;;;;;;;1.00;0.70;;;;;;;;;;5044385;28;20438;-69
2023/03/07 14:07:56;;;;;;;2.13;0.90;;;;;;;;;;5041731;28;20180;-69
2023/03/07 14:10:26;;;;;;;3.77;0.80;;;;;;;;;;5041920;28;20659;-69
2023/03/07 14:13:08;;;;;;;4.53;1.10;;;;;;;;;;5037790;28;20488;-69
2023/03/07 14:15:59;;;;;;;4.90;1.27;;;;;;;;;;5041319;28;20944;-69
2023/03/07 14:18:24;;;;;;;3.80;1.00;;;;;;;;;;5038653;28;20452;-70
2023/03/07 14:21:02;;;;;;;3.80;0.80;;;;;;;;;;5043416;28;20908;-70
2023/03/07 14:23:49;;;;;;;2.80;0.97;;;;;;;;;;5043600;28;20191;-69
2023/03/07 14:26:33;;;;;;;3.40;0.90;;;;;;;;;;5040041;28;20434;-69
2023/03/07 14:29:00;;;;;;;4.07;1.00;;;;;;;;;;5043080;28;20457;-69
2023/03/07 14:31:27;;;;;;;6.77;1.07;;;;;;;;;;5040267;28;20959;-69
2023/03/07 14:33:52;;;;;;;3.83;1.07;;;;;;;;;;5040815;28;20450;-69
2023/03/07 14:36:22;;;;;;;4.30;0.80;;;;;;;;;;5043249;28;20477;-69
2023/03/07 14:38:48;;;;;;;3.07;1.10;;;;;;;;;;5042747;28;20184;-69
2023/03/07 14:41:16;;;;;;;3.30;0.83;;;;;;;;;;5045198;28;20429;-69
2023/03/07 14:43:53;;;;;;;2.80;1.00;;;;;;;;;;5047066;28;20464;-69